sensor_id;sensor_type;location;lat;lon;timestamp;P1;durP1;ratioP1;P2;durP2;ratioP2
65581;SDS011;52231;40.090;18.348;2023-09-18T00:02:24;12.27;;;7.10;;
65581;SDS011;52231;40.090;18.348;2023-09-18T00:04:53;13.77;;;7.28;;
65581;SDS011;52231;40.090;18.348;2023-09-18T00:07:22;12.18;;;6.10;;
65581;SDS011;52231;40.090;18.348;2023-09-18T00:09:50;12.48;;;6.90;;
65581;SDS011;52231;40.090;18.348;2023-09-18T00:12:19;14.15;;;7.07;;
65581;SDS011;52231;40.090;18.348;2023-09-18T00:14:48;13.50;;;8.32;;
65581;SDS011;52231;40.090;18.348;2023-09-18T00:17:17;18.17;;;7.97;;
65581;SDS011;52231;40.090;18.348;2023-09-18T00:19:47;15.07;;;6.70;;
65581;SDS011;52231;40.090;18.348;2023-09-18T00:22:16;11.95;;;6.55;;
65581;SDS011;52231;40.090;18.348;2023-09-18T00:24:45;14.73;;;6.85;;
65581;SDS011;52231;40.090;18.348;2023-09-18T00:27:13;13.73;;;7.40;;
65581;SDS011;52231;40.090;18.348;2023-09-18T00:29:43;13.18;;;6.90;;
65581;SDS011;52231;40.090;18.348;2023-09-18T00:32:12;10.40;;;6.45;;
65581;SDS011;52231;40.090;18.348;2023-09-18T00:34:41;12.35;;;7.07;;
65581;SDS011;52231;40.090;18.348;2023-09-18T00:37:10;13.00;;;7.25;;
65581;SDS011;52231;40.090;18.348;2023-09-18T00:39:41;18.85;;;9.43;;
65581;SDS011;52231;40.090;18.348;2023-09-18T00:42:12;20.73;;;10.73;;
65581;SDS011;52231;40.090;18.348;2023-09-18T00:44:41;17.10;;;7.88;;
65581;SDS011;52231;40.090;18.348;2023-09-18T00:47:11;11.93;;;7.38;;
65581;SDS011;52231;40.090;18.348;2023-09-18T00:50:00;15.63;;;7.40;;
65581;SDS011;52231;40.090;18.348;2023-09-18T00:52:29;12.43;;;7.85;;
65581;SDS011;52231;40.090;18.348;2023-09-18T00:55:00;12.15;;;7.10;;
65581;SDS011;52231;40.090;18.348;2023-09-18T00:57:30;12.35;;;7.63;;
65581;SDS011;52231;40.090;18.348;2023-09-18T00:59:59;13.15;;;7.28;;
65581;SDS011;52231;40.090;18.348;2023-09-18T01:02:28;11.50;;;7.35;;
65581;SDS011;52231;40.090;18.348;2023-09-18T01:04:57;15.85;;;7.35;;
65581;SDS011;52231;40.090;18.348;2023-09-18T01:07:26;11.90;;;6.95;;
65581;SDS011;52231;40.090;18.348;2023-09-18T01:09:56;14.15;;;7.32;;
65581;SDS011;52231;40.090;18.348;2023-09-18T01:18:21;13.30;;;7.30;;
65581;SDS011;52231;40.090;18.348;2023-09-18T01:20:50;15.05;;;7.03;;
65581;SDS011;52231;40.090;18.348;2023-09-18T01:23:19;13.93;;;8.05;;
65581;SDS011;52231;40.090;18.348;2023-09-18T01:25:48;15.57;;;8.20;;
65581;SDS011;52231;40.090;18.348;2023-09-18T01:28:17;17.95;;;9.13;;
65581;SDS011;52231;40.090;18.348;2023-09-18T01:30:46;13.50;;;7.70;;
65581;SDS011;52231;40.090;18.348;2023-09-18T01:33:15;16.00;;;8.52;;
65581;SDS011;52231;40.090;18.348;2023-09-18T01:35:44;14.93;;;7.65;;
65581;SDS011;52231;40.090;18.348;2023-09-18T01:38:14;13.05;;;6.90;;
65581;SDS011;52231;40.090;18.348;2023-09-18T01:40:44;15.18;;;7.80;;
65581;SDS011;52231;40.090;18.348;2023-09-18T01:43:13;14.00;;;7.57;;
65581;SDS011;52231;40.090;18.348;2023-09-18T01:45:42;15.57;;;8.52;;
65581;SDS011;52231;40.090;18.348;2023-09-18T01:48:12;16.38;;;9.18;;
65581;SDS011;52231;40.090;18.348;2023-09-18T01:50:41;15.25;;;8.35;;
65581;SDS011;52231;40.090;18.348;2023-09-18T01:53:09;16.17;;;9.43;;
65581;SDS011;52231;40.090;18.348;2023-09-18T01:55:39;14.65;;;8.40;;
65581;SDS011;52231;40.090;18.348;2023-09-18T01:58:08;16.13;;;9.27;;
65581;SDS011;52231;40.090;18.348;2023-09-18T02:00:37;21.02;;;9.30;;
65581;SDS011;52231;40.090;18.348;2023-09-18T02:03:06;15.48;;;8.95;;
65581;SDS011;52231;40.090;18.348;2023-09-18T02:05:34;16.38;;;8.43;;
65581;SDS011;52231;40.090;18.348;2023-09-18T02:08:04;15.15;;;9.30;;
65581;SDS011;52231;40.090;18.348;2023-09-18T02:10:33;15.80;;;9.52;;
65581;SDS011;52231;40.090;18.348;2023-09-18T02:13:02;15.32;;;9.60;;
65581;SDS011;52231;40.090;18.348;2023-09-18T02:15:32;16.05;;;10.48;;
65581;SDS011;52231;40.090;18.348;2023-09-18T02:18:03;16.95;;;10.38;;
65581;SDS011;52231;40.090;18.348;2023-09-18T02:20:39;17.25;;;10.52;;
65581;SDS011;52231;40.090;18.348;2023-09-18T02:23:09;17.38;;;10.10;;
65581;SDS011;52231;40.090;18.348;2023-09-18T02:25:38;16.27;;;9.90;;
65581;SDS011;52231;40.090;18.348;2023-09-18T02:28:09;17.85;;;10.30;;
65581;SDS011;52231;40.090;18.348;2023-09-18T02:30:38;14.40;;;9.10;;
65581;SDS011;52231;40.090;18.348;2023-09-18T02:33:06;17.05;;;9.65;;
65581;SDS011;52231;40.090;18.348;2023-09-18T02:35:35;14.75;;;9.05;;
65581;SDS011;52231;40.090;18.348;2023-09-18T02:38:04;17.73;;;9.90;;
65581;SDS011;52231;40.090;18.348;2023-09-18T02:40:36;16.65;;;10.15;;
65581;SDS011;52231;40.090;18.348;2023-09-18T02:43:05;17.50;;;10.57;;
65581;SDS011;52231;40.090;18.348;2023-09-18T02:45:34;19.08;;;9.50;;
65581;SDS011;52231;40.090;18.348;2023-09-18T02:48:03;17.80;;;10.98;;
65581;SDS011;52231;40.090;18.348;2023-09-18T02:50:32;18.73;;;10.52;;
65581;SDS011;52231;40.090;18.348;2023-09-18T02:53:00;15.50;;;9.55;;
65581;SDS011;52231;40.090;18.348;2023-09-18T02:55:30;17.13;;;9.52;;
65581;SDS011;52231;40.090;18.348;2023-09-18T02:57:59;16.23;;;9.00;;
65581;SDS011;52231;40.090;18.348;2023-09-18T03:00:31;15.68;;;8.70;;
65581;SDS011;52231;40.090;18.348;2023-09-18T03:03:07;17.17;;;9.20;;
65581;SDS011;52231;40.090;18.348;2023-09-18T03:05:37;17.77;;;9.27;;
65581;SDS011;52231;40.090;18.348;2023-09-18T03:08:07;17.15;;;9.10;;
65581;SDS011;52231;40.090;18.348;2023-09-18T03:10:39;16.02;;;9.05;;
65581;SDS011;52231;40.090;18.348;2023-09-18T03:13:09;15.95;;;9.27;;
65581;SDS011;52231;40.090;18.348;2023-09-18T03:15:39;17.08;;;9.27;;
65581;SDS011;52231;40.090;18.348;2023-09-18T03:18:08;17.20;;;8.95;;
65581;SDS011;52231;40.090;18.348;2023-09-18T03:20:37;15.95;;;9.32;;
65581;SDS011;52231;40.090;18.348;2023-09-18T03:23:06;15.27;;;9.05;;
65581;SDS011;52231;40.090;18.348;2023-09-18T03:25:36;16.10;;;9.48;;
65581;SDS011;52231;40.090;18.348;2023-09-18T03:28:07;15.80;;;9.90;;
65581;SDS011;52231;40.090;18.348;2023-09-18T03:30:36;17.15;;;10.30;;
65581;SDS011;52231;40.090;18.348;2023-09-18T03:33:05;20.00;;;10.95;;
65581;SDS011;52231;40.090;18.348;2023-09-18T03:35:44;18.98;;;10.95;;
65581;SDS011;52231;40.090;18.348;2023-09-18T03:40:50;15.88;;;9.35;;
65581;SDS011;52231;40.090;18.348;2023-09-18T03:43:20;20.42;;;10.65;;
65581;SDS011;52231;40.090;18.348;2023-09-18T03:45:49;20.67;;;12.00;;
65581;SDS011;52231;40.090;18.348;2023-09-18T03:48:19;21.70;;;11.15;;
65581;SDS011;52231;40.090;18.348;2023-09-18T03:50:48;19.95;;;11.95;;
65581;SDS011;52231;40.090;18.348;2023-09-18T03:53:17;20.40;;;10.75;;
65581;SDS011;52231;40.090;18.348;2023-09-18T03:55:47;17.30;;;10.45;;
65581;SDS011;52231;40.090;18.348;2023-09-18T03:58:17;16.52;;;10.05;;
65581;SDS011;52231;40.090;18.348;2023-09-18T04:00:45;16.48;;;9.93;;
65581;SDS011;52231;40.090;18.348;2023-09-18T04:03:14;15.23;;;9.18;;
65581;SDS011;52231;40.090;18.348;2023-09-18T04:05:43;19.20;;;9.40;;
65581;SDS011;52231;40.090;18.348;2023-09-18T04:08:12;19.83;;;10.48;;
65581;SDS011;52231;40.090;18.348;2023-09-18T04:10:41;18.92;;;10.52;;
65581;SDS011;52231;40.090;18.348;2023-09-18T04:13:09;16.40;;;9.88;;
65581;SDS011;52231;40.090;18.348;2023-09-18T04:15:39;17.05;;;9.40;;
65581;SDS011;52231;40.090;18.348;2023-09-18T04:18:07;15.55;;;9.05;;
65581;SDS011;52231;40.090;18.348;2023-09-18T04:20:36;16.35;;;9.48;;
65581;SDS011;52231;40.090;18.348;2023-09-18T04:23:19;16.80;;;9.30;;
65581;SDS011;52231;40.090;18.348;2023-09-18T04:28:22;18.77;;;9.32;;
65581;SDS011;52231;40.090;18.348;2023-09-18T04:30:51;15.00;;;8.75;;
65581;SDS011;52231;40.090;18.348;2023-09-18T04:33:20;14.48;;;9.30;;
65581;SDS011;52231;40.090;18.348;2023-09-18T04:35:49;19.90;;;9.00;;
65581;SDS011;52231;40.090;18.348;2023-09-18T04:38:18;16.40;;;9.10;;
65581;SDS011;52231;40.090;18.348;2023-09-18T04:40:47;18.58;;;8.80;;
65581;SDS011;52231;40.090;18.348;2023-09-18T04:43:19;19.27;;;9.20;;
65581;SDS011;52231;40.090;18.348;2023-09-18T04:45:48;15.10;;;9.00;;
65581;SDS011;52231;40.090;18.348;2023-09-18T04:48:17;18.40;;;8.90;;
65581;SDS011;52231;40.090;18.348;2023-09-18T04:50:46;15.90;;;8.88;;
65581;SDS011;52231;40.090;18.348;2023-09-18T04:53:14;16.42;;;9.55;;
65581;SDS011;52231;40.090;18.348;2023-09-18T04:55:43;22.23;;;10.50;;
65581;SDS011;52231;40.090;18.348;2023-09-18T04:58:17;19.38;;;10.00;;
65581;SDS011;52231;40.090;18.348;2023-09-18T05:00:47;19.30;;;10.45;;
65581;SDS011;52231;40.090;18.348;2023-09-18T05:03:23;21.40;;;10.40;;
65581;SDS011;52231;40.090;18.348;2023-09-18T05:05:57;19.52;;;10.85;;
65581;SDS011;52231;40.090;18.348;2023-09-18T05:08:26;18.60;;;9.60;;
65581;SDS011;52231;40.090;18.348;2023-09-18T05:10:55;16.75;;;8.93;;
65581;SDS011;52231;40.090;18.348;2023-09-18T05:13:25;17.17;;;8.32;;
65581;SDS011;52231;40.090;18.348;2023-09-18T05:15:54;17.80;;;8.05;;
65581;SDS011;52231;40.090;18.348;2023-09-18T05:18:23;14.05;;;8.10;;
65581;SDS011;52231;40.090;18.348;2023-09-18T05:20:52;16.85;;;7.35;;
65581;SDS011;52231;40.090;18.348;2023-09-18T05:23:20;13.23;;;7.38;;
65581;SDS011;52231;40.090;18.348;2023-09-18T05:25:50;13.25;;;7.38;;
65581;SDS011;52231;40.090;18.348;2023-09-18T05:28:19;12.90;;;7.35;;
65581;SDS011;52231;40.090;18.348;2023-09-18T05:30:47;16.58;;;7.53;;
65581;SDS011;52231;40.090;18.348;2023-09-18T05:33:17;12.95;;;7.10;;
65581;SDS011;52231;40.090;18.348;2023-09-18T05:35:47;14.90;;;6.70;;
65581;SDS011;52231;40.090;18.348;2023-09-18T05:38:17;13.65;;;6.25;;
65581;SDS011;52231;40.090;18.348;2023-09-18T05:40:46;11.40;;;6.47;;
65581;SDS011;52231;40.090;18.348;2023-09-18T05:43:15;16.02;;;7.13;;
65581;SDS011;52231;40.090;18.348;2023-09-18T05:45:43;15.93;;;7.53;;
65581;SDS011;52231;40.090;18.348;2023-09-18T05:48:13;19.17;;;9.77;;
65581;SDS011;52231;40.090;18.348;2023-09-18T05:50:41;13.63;;;8.75;;
65581;SDS011;52231;40.090;18.348;2023-09-18T05:53:11;17.10;;;9.18;;
65581;SDS011;52231;40.090;18.348;2023-09-18T05:55:39;17.73;;;8.88;;
65581;SDS011;52231;40.090;18.348;2023-09-18T05:58:08;19.85;;;9.88;;
65581;SDS011;52231;40.090;18.348;2023-09-18T06:00:42;22.33;;;11.38;;
65581;SDS011;52231;40.090;18.348;2023-09-18T06:03:10;28.48;;;12.35;;
65581;SDS011;52231;40.090;18.348;2023-09-18T06:05:40;21.50;;;10.13;;
65581;SDS011;52231;40.090;18.348;2023-09-18T06:08:09;24.38;;;10.68;;
65581;SDS011;52231;40.090;18.348;2023-09-18T06:10:38;21.10;;;9.00;;
65581;SDS011;52231;40.090;18.348;2023-09-18T06:13:06;17.77;;;8.20;;
65581;SDS011;52231;40.090;18.348;2023-09-18T06:15:35;19.23;;;7.22;;
65581;SDS011;52231;40.090;18.348;2023-09-18T06:18:04;15.70;;;6.85;;
65581;SDS011;52231;40.090;18.348;2023-09-18T06:20:34;14.90;;;6.88;;
65581;SDS011;52231;40.090;18.348;2023-09-18T06:23:03;14.48;;;6.65;;
65581;SDS011;52231;40.090;18.348;2023-09-18T06:25:32;11.95;;;5.57;;
65581;SDS011;52231;40.090;18.348;2023-09-18T06:28:00;13.05;;;5.85;;
65581;SDS011;52231;40.090;18.348;2023-09-18T06:30:31;14.18;;;5.53;;
65581;SDS011;52231;40.090;18.348;2023-09-18T06:33:01;14.40;;;5.75;;
65581;SDS011;52231;40.090;18.348;2023-09-18T06:35:31;14.77;;;5.40;;
65581;SDS011;52231;40.090;18.348;2023-09-18T06:38:03;9.43;;;4.70;;
65581;SDS011;52231;40.090;18.348;2023-09-18T06:40:34;11.45;;;4.55;;
65581;SDS011;52231;40.090;18.348;2023-09-18T06:43:05;11.65;;;4.72;;
65581;SDS011;52231;40.090;18.348;2023-09-18T06:45:34;11.80;;;5.00;;
65581;SDS011;52231;40.090;18.348;2023-09-18T06:48:05;11.80;;;4.47;;
65581;SDS011;52231;40.090;18.348;2023-09-18T06:50:34;18.52;;;6.80;;
65581;SDS011;52231;40.090;18.348;2023-09-18T06:53:04;12.18;;;4.45;;
65581;SDS011;52231;40.090;18.348;2023-09-18T06:55:33;8.85;;;4.13;;
65581;SDS011;52231;40.090;18.348;2023-09-18T06:58:02;12.07;;;4.20;;
65581;SDS011;52231;40.090;18.348;2023-09-18T07:00:30;8.05;;;4.03;;
65581;SDS011;52231;40.090;18.348;2023-09-18T07:03:00;9.85;;;3.58;;
65581;SDS011;52231;40.090;18.348;2023-09-18T07:05:29;10.82;;;4.15;;
65581;SDS011;52231;40.090;18.348;2023-09-18T07:07:58;9.23;;;3.90;;
65581;SDS011;52231;40.090;18.348;2023-09-18T07:10:26;12.10;;;4.57;;
65581;SDS011;52231;40.090;18.348;2023-09-18T07:12:56;9.50;;;3.75;;
65581;SDS011;52231;40.090;18.348;2023-09-18T07:15:24;10.98;;;3.70;;
65581;SDS011;52231;40.090;18.348;2023-09-18T07:17:53;8.48;;;3.90;;
65581;SDS011;52231;40.090;18.348;2023-09-18T07:20:23;10.57;;;4.05;;
65581;SDS011;52231;40.090;18.348;2023-09-18T07:22:52;9.38;;;3.72;;
65581;SDS011;52231;40.090;18.348;2023-09-18T07:25:21;11.88;;;4.45;;
65581;SDS011;52231;40.090;18.348;2023-09-18T07:27:50;10.27;;;4.10;;
65581;SDS011;52231;40.090;18.348;2023-09-18T07:30:19;11.38;;;3.72;;
65581;SDS011;52231;40.090;18.348;2023-09-18T07:32:50;9.05;;;3.70;;
65581;SDS011;52231;40.090;18.348;2023-09-18T07:35:18;10.68;;;3.63;;
65581;SDS011;52231;40.090;18.348;2023-09-18T07:37:47;12.55;;;4.10;;
65581;SDS011;52231;40.090;18.348;2023-09-18T07:40:16;10.52;;;4.13;;
65581;SDS011;52231;40.090;18.348;2023-09-18T07:42:45;10.00;;;3.95;;
65581;SDS011;52231;40.090;18.348;2023-09-18T07:45:14;10.75;;;3.88;;
65581;SDS011;52231;40.090;18.348;2023-09-18T07:47:42;9.65;;;3.90;;
65581;SDS011;52231;40.090;18.348;2023-09-18T07:50:12;9.93;;;3.67;;
65581;SDS011;52231;40.090;18.348;2023-09-18T07:52:41;11.20;;;4.38;;
65581;SDS011;52231;40.090;18.348;2023-09-18T07:55:09;9.15;;;3.92;;
65581;SDS011;52231;40.090;18.348;2023-09-18T07:57:38;8.75;;;3.88;;
65581;SDS011;52231;40.090;18.348;2023-09-18T08:00:07;11.35;;;3.92;;
65581;SDS011;52231;40.090;18.348;2023-09-18T08:02:40;11.38;;;3.63;;
65581;SDS011;52231;40.090;18.348;2023-09-18T08:05:10;10.20;;;3.25;;
65581;SDS011;52231;40.090;18.348;2023-09-18T08:07:39;10.02;;;3.72;;
65581;SDS011;52231;40.090;18.348;2023-09-18T08:10:09;13.45;;;3.67;;
65581;SDS011;52231;40.090;18.348;2023-09-18T08:12:38;6.57;;;3.50;;
65581;SDS011;52231;40.090;18.348;2023-09-18T08:15:06;8.65;;;3.33;;
65581;SDS011;52231;40.090;18.348;2023-09-18T08:17:37;10.27;;;3.72;;
65581;SDS011;52231;40.090;18.348;2023-09-18T08:20:06;9.38;;;3.53;;
65581;SDS011;52231;40.090;18.348;2023-09-18T08:22:40;11.38;;;3.33;;
65581;SDS011;52231;40.090;18.348;2023-09-18T08:25:10;10.38;;;3.60;;
65581;SDS011;52231;40.090;18.348;2023-09-18T08:27:39;11.55;;;3.65;;
65581;SDS011;52231;40.090;18.348;2023-09-18T08:30:12;9.23;;;3.60;;
65581;SDS011;52231;40.090;18.348;2023-09-18T08:32:43;9.75;;;3.30;;
65581;SDS011;52231;40.090;18.348;2023-09-18T08:35:11;13.02;;;3.83;;
65581;SDS011;52231;40.090;18.348;2023-09-18T08:37:41;9.23;;;3.55;;
65581;SDS011;52231;40.090;18.348;2023-09-18T08:40:11;8.40;;;3.30;;
65581;SDS011;52231;40.090;18.348;2023-09-18T08:42:48;8.07;;;3.13;;
65581;SDS011;52231;40.090;18.348;2023-09-18T08:48:02;12.75;;;3.28;;
65581;SDS011;52231;40.090;18.348;2023-09-18T08:50:32;9.65;;;3.53;;
65581;SDS011;52231;40.090;18.348;2023-09-18T08:53:02;9.80;;;3.42;;
65581;SDS011;52231;40.090;18.348;2023-09-18T08:55:33;11.50;;;3.70;;
65581;SDS011;52231;40.090;18.348;2023-09-18T08:58:02;11.38;;;3.80;;
65581;SDS011;52231;40.090;18.348;2023-09-18T09:00:31;13.13;;;4.22;;
65581;SDS011;52231;40.090;18.348;2023-09-18T09:03:00;14.20;;;3.95;;
65581;SDS011;52231;40.090;18.348;2023-09-18T09:05:31;11.68;;;4.53;;
65581;SDS011;52231;40.090;18.348;2023-09-18T09:08:00;12.20;;;4.35;;
65581;SDS011;52231;40.090;18.348;2023-09-18T09:10:32;11.32;;;4.97;;
65581;SDS011;52231;40.090;18.348;2023-09-18T09:13:01;12.27;;;4.70;;
65581;SDS011;52231;40.090;18.348;2023-09-18T09:15:34;11.38;;;4.25;;
65581;SDS011;52231;40.090;18.348;2023-09-18T09:18:16;16.25;;;4.55;;
65581;SDS011;52231;40.090;18.348;2023-09-18T09:20:57;9.15;;;3.88;;
65581;SDS011;52231;40.090;18.348;2023-09-18T09:23:44;10.40;;;4.60;;
65581;SDS011;52231;40.090;18.348;2023-09-18T09:26:20;16.20;;;5.70;;
65581;SDS011;52231;40.090;18.348;2023-09-18T09:28:50;14.60;;;3.88;;
65581;SDS011;52231;40.090;18.348;2023-09-18T09:31:25;11.57;;;3.90;;
65581;SDS011;52231;40.090;18.348;2023-09-18T09:34:26;9.60;;;4.15;;
65581;SDS011;52231;40.090;18.348;2023-09-18T09:36:57;12.73;;;4.35;;
65581;SDS011;52231;40.090;18.348;2023-09-18T09:39:29;10.07;;;3.80;;
65581;SDS011;52231;40.090;18.348;2023-09-18T09:42:01;14.02;;;3.65;;
65581;SDS011;52231;40.090;18.348;2023-09-18T09:44:32;12.55;;;3.78;;
65581;SDS011;52231;40.090;18.348;2023-09-18T09:47:01;12.52;;;3.95;;
65581;SDS011;52231;40.090;18.348;2023-09-18T09:49:44;19.60;;;3.63;;
65581;SDS011;52231;40.090;18.348;2023-09-18T09:52:18;11.00;;;3.80;;
65581;SDS011;52231;40.090;18.348;2023-09-18T09:54:51;11.77;;;4.00;;
65581;SDS011;52231;40.090;18.348;2023-09-18T10:02:12;12.43;;;4.35;;
65581;SDS011;52231;40.090;18.348;2023-09-18T10:04:47;12.13;;;3.85;;
65581;SDS011;52231;40.090;18.348;2023-09-18T10:07:17;10.50;;;3.72;;
65581;SDS011;52231;40.090;18.348;2023-09-18T10:09:46;12.23;;;3.78;;
65581;SDS011;52231;40.090;18.348;2023-09-18T10:12:17;10.57;;;3.35;;
65581;SDS011;52231;40.090;18.348;2023-09-18T10:14:51;9.90;;;3.30;;
65581;SDS011;52231;40.090;18.348;2023-09-18T10:17:28;15.07;;;3.45;;
65581;SDS011;52231;40.090;18.348;2023-09-18T10:20:02;10.45;;;3.67;;
65581;SDS011;52231;40.090;18.348;2023-09-18T10:22:44;10.43;;;3.35;;
65581;SDS011;52231;40.090;18.348;2023-09-18T10:25:27;16.35;;;3.30;;
65581;SDS011;52231;40.090;18.348;2023-09-18T10:27:58;11.95;;;3.63;;
65581;SDS011;52231;40.090;18.348;2023-09-18T10:30:29;11.63;;;3.42;;
65581;SDS011;52231;40.090;18.348;2023-09-18T10:33:01;9.45;;;3.00;;
65581;SDS011;52231;40.090;18.348;2023-09-18T10:35:30;9.45;;;2.85;;
65581;SDS011;52231;40.090;18.348;2023-09-18T10:37:58;9.88;;;3.03;;
65581;SDS011;52231;40.090;18.348;2023-09-18T10:40:27;12.23;;;3.30;;
65581;SDS011;52231;40.090;18.348;2023-09-18T10:42:58;11.95;;;3.25;;
65581;SDS011;52231;40.090;18.348;2023-09-18T10:45:29;10.55;;;3.30;;
65581;SDS011;52231;40.090;18.348;2023-09-18T10:47:58;12.80;;;3.30;;
65581;SDS011;52231;40.090;18.348;2023-09-18T10:50:28;11.48;;;3.30;;
65581;SDS011;52231;40.090;18.348;2023-09-18T10:52:57;12.63;;;3.03;;
65581;SDS011;52231;40.090;18.348;2023-09-18T10:55:26;10.85;;;4.22;;
65581;SDS011;52231;40.090;18.348;2023-09-18T10:57:55;11.00;;;3.22;;
65581;SDS011;52231;40.090;18.348;2023-09-18T11:00:26;8.63;;;3.10;;
65581;SDS011;52231;40.090;18.348;2023-09-18T11:03:09;12.50;;;3.15;;
65581;SDS011;52231;40.090;18.348;2023-09-18T11:05:40;13.73;;;3.10;;
65581;SDS011;52231;40.090;18.348;2023-09-18T11:10:58;15.88;;;3.10;;
65581;SDS011;52231;40.090;18.348;2023-09-18T11:13:41;13.52;;;3.30;;
65581;SDS011;52231;40.090;18.348;2023-09-18T11:18:50;12.27;;;3.30;;
65581;SDS011;52231;40.090;18.348;2023-09-18T11:21:28;9.32;;;3.03;;
65581;SDS011;52231;40.090;18.348;2023-09-18T11:26:34;9.45;;;3.33;;
65581;SDS011;52231;40.090;18.348;2023-09-18T11:29:07;12.35;;;3.08;;
65581;SDS011;52231;40.090;18.348;2023-09-18T11:31:44;11.60;;;3.05;;
65581;SDS011;52231;40.090;18.348;2023-09-18T11:34:20;9.02;;;2.90;;
65581;SDS011;52231;40.090;18.348;2023-09-18T11:36:53;14.40;;;3.45;;
65581;SDS011;52231;40.090;18.348;2023-09-18T11:39:33;11.55;;;3.10;;
65581;SDS011;52231;40.090;18.348;2023-09-18T11:42:07;14.60;;;3.58;;
65581;SDS011;52231;40.090;18.348;2023-09-18T11:44:39;12.45;;;3.30;;
65581;SDS011;52231;40.090;18.348;2023-09-18T11:47:18;15.25;;;3.30;;
65581;SDS011;52231;40.090;18.348;2023-09-18T11:49:52;8.77;;;2.95;;
65581;SDS011;52231;40.090;18.348;2023-09-18T11:52:24;15.60;;;3.28;;
65581;SDS011;52231;40.090;18.348;2023-09-18T11:54:56;11.60;;;2.92;;
65581;SDS011;52231;40.090;18.348;2023-09-18T12:02:08;13.07;;;3.30;;
65581;SDS011;52231;40.090;18.348;2023-09-18T12:04:56;12.98;;;3.58;;
65581;SDS011;52231;40.090;18.348;2023-09-18T12:07:24;13.77;;;3.45;;
65581;SDS011;52231;40.090;18.348;2023-09-18T12:09:54;12.20;;;3.22;;
65581;SDS011;52231;40.090;18.348;2023-09-18T12:12:23;13.63;;;3.50;;
65581;SDS011;52231;40.090;18.348;2023-09-18T12:14:53;12.82;;;3.45;;
65581;SDS011;52231;40.090;18.348;2023-09-18T12:17:22;9.90;;;2.90;;
65581;SDS011;52231;40.090;18.348;2023-09-18T12:19:51;9.43;;;2.75;;
65581;SDS011;52231;40.090;18.348;2023-09-18T12:22:25;10.50;;;2.90;;
65581;SDS011;52231;40.090;18.348;2023-09-18T12:25:11;9.57;;;3.33;;
65581;SDS011;52231;40.090;18.348;2023-09-18T12:27:46;11.68;;;3.33;;
65581;SDS011;52231;40.090;18.348;2023-09-18T12:30:22;14.27;;;3.47;;
65581;SDS011;52231;40.090;18.348;2023-09-18T12:32:51;21.17;;;4.07;;
65581;SDS011;52231;40.090;18.348;2023-09-18T12:35:21;15.23;;;3.60;;
65581;SDS011;52231;40.090;18.348;2023-09-18T12:37:50;22.83;;;3.92;;
65581;SDS011;52231;40.090;18.348;2023-09-18T12:40:21;18.98;;;4.07;;
65581;SDS011;52231;40.090;18.348;2023-09-18T12:42:56;12.98;;;3.33;;
65581;SDS011;52231;40.090;18.348;2023-09-18T12:45:25;15.02;;;3.45;;
65581;SDS011;52231;40.090;18.348;2023-09-18T12:47:55;14.98;;;3.35;;
65581;SDS011;52231;40.090;18.348;2023-09-18T12:50:26;17.55;;;3.75;;
65581;SDS011;52231;40.090;18.348;2023-09-18T12:53:06;18.50;;;3.70;;
65581;SDS011;52231;40.090;18.348;2023-09-18T12:55:35;14.90;;;3.53;;
65581;SDS011;52231;40.090;18.348;2023-09-18T12:58:06;15.73;;;3.60;;
65581;SDS011;52231;40.090;18.348;2023-09-18T13:00:44;18.90;;;3.35;;
65581;SDS011;52231;40.090;18.348;2023-09-18T13:03:15;11.40;;;3.20;;
65581;SDS011;52231;40.090;18.348;2023-09-18T13:05:43;17.45;;;3.50;;
65581;SDS011;52231;40.090;18.348;2023-09-18T13:08:14;12.18;;;3.35;;
65581;SDS011;52231;40.090;18.348;2023-09-18T13:10:43;16.02;;;3.80;;
65581;SDS011;52231;40.090;18.348;2023-09-18T13:13:23;11.02;;;3.20;;
65581;SDS011;52231;40.090;18.348;2023-09-18T13:15:55;11.80;;;2.70;;
65581;SDS011;52231;40.090;18.348;2023-09-18T13:18:27;13.02;;;3.40;;
65581;SDS011;52231;40.090;18.348;2023-09-18T13:20:58;18.58;;;3.70;;
65581;SDS011;52231;40.090;18.348;2023-09-18T13:23:28;12.25;;;3.22;;
65581;SDS011;52231;40.090;18.348;2023-09-18T13:25:58;16.40;;;3.78;;
65581;SDS011;52231;40.090;18.348;2023-09-18T13:28:31;14.60;;;3.30;;
65581;SDS011;52231;40.090;18.348;2023-09-18T13:31:05;19.27;;;3.78;;
65581;SDS011;52231;40.090;18.348;2023-09-18T13:33:38;11.95;;;3.45;;
65581;SDS011;52231;40.090;18.348;2023-09-18T13:36:09;18.45;;;3.50;;
65581;SDS011;52231;40.090;18.348;2023-09-18T13:38:37;17.08;;;3.72;;
65581;SDS011;52231;40.090;18.348;2023-09-18T13:41:06;15.85;;;2.92;;
65581;SDS011;52231;40.090;18.348;2023-09-18T13:43:35;19.23;;;3.72;;
65581;SDS011;52231;40.090;18.348;2023-09-18T13:46:03;21.15;;;4.05;;
65581;SDS011;52231;40.090;18.348;2023-09-18T13:48:34;20.98;;;4.20;;
65581;SDS011;52231;40.090;18.348;2023-09-18T13:51:03;18.38;;;4.13;;
65581;SDS011;52231;40.090;18.348;2023-09-18T13:53:31;20.30;;;3.53;;
65581;SDS011;52231;40.090;18.348;2023-09-18T13:55:59;18.25;;;4.15;;
65581;SDS011;52231;40.090;18.348;2023-09-18T13:58:30;19.85;;;3.95;;
65581;SDS011;52231;40.090;18.348;2023-09-18T14:00:58;17.27;;;4.00;;
65581;SDS011;52231;40.090;18.348;2023-09-18T14:03:27;15.55;;;3.85;;
65581;SDS011;52231;40.090;18.348;2023-09-18T14:05:57;13.18;;;3.25;;
65581;SDS011;52231;40.090;18.348;2023-09-18T14:08:26;17.50;;;3.60;;
65581;SDS011;52231;40.090;18.348;2023-09-18T14:10:54;12.40;;;3.40;;
65581;SDS011;52231;40.090;18.348;2023-09-18T14:13:23;15.73;;;3.30;;
65581;SDS011;52231;40.090;18.348;2023-09-18T14:15:51;15.02;;;3.60;;
65581;SDS011;52231;40.090;18.348;2023-09-18T14:18:20;19.38;;;4.30;;
65581;SDS011;52231;40.090;18.348;2023-09-18T14:20:48;16.73;;;3.55;;
65581;SDS011;52231;40.090;18.348;2023-09-18T14:23:16;18.70;;;3.28;;
65581;SDS011;52231;40.090;18.348;2023-09-18T14:25:46;14.80;;;3.90;;
65581;SDS011;52231;40.090;18.348;2023-09-18T14:28:16;12.65;;;3.40;;
65581;SDS011;52231;40.090;18.348;2023-09-18T14:30:45;22.42;;;4.97;;
65581;SDS011;52231;40.090;18.348;2023-09-18T14:33:13;17.73;;;4.00;;
65581;SDS011;52231;40.090;18.348;2023-09-18T14:35:42;15.85;;;3.40;;
65581;SDS011;52231;40.090;18.348;2023-09-18T14:38:10;16.17;;;3.75;;
65581;SDS011;52231;40.090;18.348;2023-09-18T14:40:41;12.98;;;3.30;;
65581;SDS011;52231;40.090;18.348;2023-09-18T14:43:09;13.60;;;3.13;;
65581;SDS011;52231;40.090;18.348;2023-09-18T14:45:39;15.75;;;3.05;;
65581;SDS011;52231;40.090;18.348;2023-09-18T14:48:08;17.52;;;3.42;;
65581;SDS011;52231;40.090;18.348;2023-09-18T14:50:36;24.85;;;6.03;;
65581;SDS011;52231;40.090;18.348;2023-09-18T14:53:04;17.77;;;3.70;;
65581;SDS011;52231;40.090;18.348;2023-09-18T14:55:34;18.25;;;3.95;;
65581;SDS011;52231;40.090;18.348;2023-09-18T14:58:03;20.83;;;3.50;;
65581;SDS011;52231;40.090;18.348;2023-09-18T15:00:31;17.73;;;3.70;;
65581;SDS011;52231;40.090;18.348;2023-09-18T15:03:00;13.07;;;2.88;;
65581;SDS011;52231;40.090;18.348;2023-09-18T15:05:28;17.80;;;4.10;;
65581;SDS011;52231;40.090;18.348;2023-09-18T15:07:56;19.25;;;4.18;;
65581;SDS011;52231;40.090;18.348;2023-09-18T15:10:24;17.00;;;3.40;;
65581;SDS011;52231;40.090;18.348;2023-09-18T15:12:56;17.08;;;3.55;;